PWSweather.com
Personal Weather Stations
Station Observations
IHTIMAN1
Neighbourhood 1, IhtimanBG 2050

Neighbourhood 1IhtimanBG 2050

Lat: 42.436852, Lon: 23.817921

Elevation: 2066

Station Type: Oregon Scientific WMR968

http://ihtiman-meteo.com

High Low Average
Temperature 62.4°F16.9°C 52.3°F11.3°C 57.2°F14.0°C
Dew Point 51.3°F10.7°C 46.0°F7.8°C 48.9°F9.4°C
Winds 12.7 mph 20.4 kmh Calm Calm 6.0 mph SE9.7 kmh SE
Wind Gusts 19.6 mph31.5 kmh -- 9.0 mph14.5 kmh
Humidity 87% 65% 74%
Pressure 30.03 in1016.9 mb 29.94 in1013.9 mb -
Precipitation 0.00 in0.0 mm - -
Hour Temp Dew Point Humidity Winds Wind Gusts Pressure Precip Precip Rate Daily Precip Total
12:00 AM 58.3°F14.6°C 48.2°F9.0°C 69% 3.5 mph S5.6 kmh S 6.9 mph11.1 kmh 29.97 in1014.9 mb - 0.00 in0.0 mm 0.00 in0.0 mm
12:10 AM 58.1°F14.5°C 48.0°F8.9°C 69% 4.6 mph S7.4 kmh S 5.8 mph9.3 kmh 29.97 in1014.9 mb - 0.00 in0.0 mm 0.00 in0.0 mm
12:20 AM 57.8°F14.3°C 47.7°F8.7°C 69% 5.8 mph SSE9.3 kmh SSE 5.8 mph9.3 kmh 29.97 in1014.9 mb - 0.00 in0.0 mm 0.00 in0.0 mm
12:30 AM 57.4°F14.1°C 47.7°F8.7°C 70% 4.6 mph S7.4 kmh S 5.8 mph9.3 kmh 29.97 in1014.9 mb - 0.00 in0.0 mm 0.00 in0.0 mm
12:40 AM 57.0°F13.9°C 47.7°F8.7°C 71% 3.5 mph S5.6 kmh S 5.8 mph9.3 kmh 29.97 in1014.9 mb - 0.00 in0.0 mm 0.00 in0.0 mm
12:50 AM 56.5°F13.6°C 47.6°F8.7°C 72% 3.5 mph S5.6 kmh S 3.5 mph5.6 kmh 29.97 in1014.9 mb - 0.00 in0.0 mm 0.00 in0.0 mm
01:00 AM 56.1°F13.4°C 47.6°F8.7°C 73% 3.5 mph S5.6 kmh S 5.8 mph9.3 kmh 29.97 in1014.9 mb - 0.00 in0.0 mm 0.00 in0.0 mm
01:10 AM 55.8°F13.2°C 47.6°F8.7°C 74% 3.5 mph S5.6 kmh S 3.5 mph5.6 kmh 29.97 in1014.9 mb - 0.00 in0.0 mm 0.00 in0.0 mm
01:20 AM 55.8°F13.2°C 47.6°F8.7°C 74% 3.5 mph S5.6 kmh S 5.8 mph9.3 kmh 29.97 in1014.9 mb - 0.00 in0.0 mm 0.00 in0.0 mm
01:40 AM 55.4°F13.0°C 48.0°F8.9°C 76% 3.5 mph S5.6 kmh S 6.9 mph11.1 kmh 29.97 in1014.9 mb - 0.00 in0.0 mm 0.00 in0.0 mm
01:50 AM 55.0°F12.8°C 48.0°F8.9°C 77% 3.5 mph SSW5.6 kmh SSW 5.8 mph9.3 kmh 29.97 in1014.9 mb - 0.00 in0.0 mm 0.00 in0.0 mm
02:00 AM 55.0°F12.8°C 48.0°F8.9°C 77% 4.6 mph S7.4 kmh S 5.8 mph9.3 kmh 29.97 in1014.9 mb - 0.00 in0.0 mm 0.00 in0.0 mm
02:10 AM 55.0°F12.8°C 47.6°F8.7°C 76% 3.5 mph S5.6 kmh S 8.1 mph13.0 kmh 29.97 in1014.9 mb - 0.00 in0.0 mm 0.00 in0.0 mm
02:20 AM 55.0°F12.8°C 47.6°F8.7°C 76% 3.5 mph S5.6 kmh S 5.8 mph9.3 kmh 29.97 in1014.9 mb - 0.00 in0.0 mm 0.00 in0.0 mm
02:30 AM 55.0°F12.8°C 47.6°F8.7°C 76% 2.3 mph SSE3.7 kmh SSE 3.5 mph5.6 kmh 29.97 in1014.9 mb - 0.00 in0.0 mm 0.00 in0.0 mm
02:40 AM 55.0°F12.8°C 47.6°F8.7°C 76% 2.3 mph S3.7 kmh S 3.5 mph5.6 kmh 29.97 in1014.9 mb - 0.00 in0.0 mm 0.00 in0.0 mm
02:50 AM 54.2°F12.3°C 46.8°F8.2°C 76% 3.5 mph SSE5.6 kmh SSE 5.8 mph9.3 kmh 29.97 in1014.9 mb - 0.00 in0.0 mm 0.00 in0.0 mm
03:00 AM 54.0°F12.2°C 46.9°F8.3°C 77% 4.6 mph SSE7.4 kmh SSE 9.2 mph14.8 kmh 29.97 in1014.9 mb - 0.00 in0.0 mm 0.00 in0.0 mm
03:10 AM 54.0°F12.2°C 47.6°F8.7°C 79% 3.5 mph SE5.6 kmh SE 4.6 mph7.4 kmh 29.97 in1014.9 mb - 0.00 in0.0 mm 0.00 in0.0 mm
03:20 AM 54.0°F12.2°C 47.6°F8.7°C 79% 2.3 mph SE3.7 kmh SE 5.8 mph9.3 kmh 29.97 in1014.9 mb - 0.00 in0.0 mm 0.00 in0.0 mm
03:30 AM 54.0°F12.2°C 47.6°F8.7°C 79% Calm Calm -- 29.97 in1014.9 mb - 0.00 in0.0 mm 0.00 in0.0 mm
03:40 AM 54.0°F12.2°C 47.6°F8.7°C 79% 3.5 mph S5.6 kmh S 5.8 mph9.3 kmh 29.97 in1014.9 mb - 0.00 in0.0 mm 0.00 in0.0 mm
03:50 AM 54.0°F12.2°C 47.6°F8.7°C 79% 3.5 mph S5.6 kmh S 5.8 mph9.3 kmh 29.97 in1014.9 mb - 0.00 in0.0 mm 0.00 in0.0 mm
04:00 AM 54.0°F12.2°C 47.6°F8.7°C 79% 2.3 mph SSE3.7 kmh SSE 4.6 mph7.4 kmh 29.97 in1014.9 mb - 0.00 in0.0 mm 0.00 in0.0 mm
04:10 AM 54.0°F12.2°C 47.6°F8.7°C 79% 5.8 mph S9.3 kmh S 8.1 mph13.0 kmh 29.97 in1014.9 mb - 0.00 in0.0 mm 0.00 in0.0 mm
04:20 AM 53.8°F12.1°C 49.4°F9.7°C 85% 5.8 mph S9.3 kmh S 8.1 mph13.0 kmh 29.97 in1014.9 mb - 0.00 in0.0 mm 0.00 in0.0 mm
04:30 AM 53.8°F12.1°C 49.4°F9.7°C 85% 3.5 mph S5.6 kmh S 5.8 mph9.3 kmh 29.97 in1014.9 mb - 0.00 in0.0 mm 0.00 in0.0 mm
04:40 AM 53.8°F12.1°C 49.4°F9.7°C 85% 3.5 mph S5.6 kmh S 5.8 mph9.3 kmh 29.97 in1014.9 mb - 0.00 in0.0 mm 0.00 in0.0 mm
04:50 AM 53.6°F12.0°C 49.2°F9.6°C 85% Calm Calm 3.5 mph5.6 kmh 29.97 in1014.9 mb - 0.00 in0.0 mm 0.00 in0.0 mm
05:00 AM 53.6°F12.0°C 49.2°F9.6°C 85% 2.3 mph SSE3.7 kmh SSE 3.5 mph5.6 kmh 29.97 in1014.9 mb - 0.00 in0.0 mm 0.00 in0.0 mm
05:10 AM 53.6°F12.0°C 49.2°F9.6°C 85% 3.5 mph S5.6 kmh S 3.5 mph5.6 kmh 29.97 in1014.9 mb - 0.00 in0.0 mm 0.00 in0.0 mm
05:20 AM 53.6°F12.0°C 49.2°F9.6°C 85% 3.5 mph SE5.6 kmh SE 3.5 mph5.6 kmh 29.97 in1014.9 mb - 0.00 in0.0 mm 0.00 in0.0 mm
05:30 AM 53.6°F12.0°C 49.2°F9.6°C 85% 4.6 mph SE7.4 kmh SE 8.1 mph13.0 kmh 30.00 in1015.9 mb - 0.00 in0.0 mm 0.00 in0.0 mm
05:40 AM 53.6°F12.0°C 49.2°F9.6°C 85% 1.2 mph SE1.9 kmh SE 9.2 mph14.8 kmh 30.00 in1015.9 mb - 0.00 in0.0 mm 0.00 in0.0 mm
05:50 AM 53.6°F12.0°C 49.2°F9.6°C 85% 5.8 mph SSE9.3 kmh SSE 5.8 mph9.3 kmh 30.00 in1015.9 mb - 0.00 in0.0 mm 0.00 in0.0 mm
06:00 AM 53.6°F12.0°C 49.2°F9.6°C 85% 3.5 mph SSE5.6 kmh SSE 3.5 mph5.6 kmh 30.00 in1015.9 mb - 0.00 in0.0 mm 0.00 in0.0 mm
06:10 AM 53.6°F12.0°C 49.2°F9.6°C 85% 1.2 mph SE1.9 kmh SE 2.3 mph3.7 kmh 30.00 in1015.9 mb - 0.00 in0.0 mm 0.00 in0.0 mm
06:20 AM 53.6°F12.0°C 49.2°F9.6°C 85% 4.6 mph SE7.4 kmh SE 8.1 mph13.0 kmh 30.00 in1015.9 mb - 0.00 in0.0 mm 0.00 in0.0 mm
06:30 AM 53.6°F12.0°C 49.2°F9.6°C 85% 3.5 mph SE5.6 kmh SE 9.2 mph14.8 kmh 30.00 in1015.9 mb - 0.00 in0.0 mm 0.00 in0.0 mm
06:40 AM 53.6°F12.0°C 49.2°F9.6°C 85% 5.8 mph SE9.3 kmh SE 9.2 mph14.8 kmh 30.00 in1015.9 mb - 0.00 in0.0 mm 0.00 in0.0 mm
06:50 AM 54.5°F12.5°C 49.4°F9.7°C 83% 3.5 mph SE5.6 kmh SE 5.8 mph9.3 kmh 30.00 in1015.9 mb - 0.00 in0.0 mm 0.00 in0.0 mm
07:00 AM 54.7°F12.6°C 49.0°F9.4°C 81% 3.5 mph ESE5.6 kmh ESE 5.8 mph9.3 kmh 30.00 in1015.9 mb - 0.00 in0.0 mm 0.00 in0.0 mm
07:10 AM 54.7°F12.6°C 49.0°F9.4°C 81% 6.9 mph SE11.1 kmh SE 8.1 mph13.0 kmh 30.00 in1015.9 mb - 0.00 in0.0 mm 0.00 in0.0 mm
07:20 AM 54.7°F12.6°C 49.0°F9.4°C 81% 5.8 mph ESE9.3 kmh ESE 8.1 mph13.0 kmh 30.00 in1015.9 mb - 0.00 in0.0 mm 0.00 in0.0 mm
07:30 AM 54.7°F12.6°C 49.0°F9.4°C 81% 4.6 mph SE7.4 kmh SE 5.8 mph9.3 kmh 30.00 in1015.9 mb - 0.00 in0.0 mm 0.00 in0.0 mm
07:40 AM 54.7°F12.6°C 49.0°F9.4°C 81% 3.5 mph SE5.6 kmh SE 6.9 mph11.1 kmh 30.00 in1015.9 mb - 0.00 in0.0 mm 0.00 in0.0 mm
07:50 AM 54.7°F12.6°C 49.0°F9.4°C 81% 4.6 mph SE7.4 kmh SE 5.8 mph9.3 kmh 30.00 in1015.9 mb - 0.00 in0.0 mm 0.00 in0.0 mm
08:00 AM 54.7°F12.6°C 49.0°F9.4°C 81% 5.8 mph SE9.3 kmh SE 9.2 mph14.8 kmh 30.00 in1015.9 mb - 0.00 in0.0 mm 0.00 in0.0 mm
08:10 AM 54.3°F12.4°C 48.3°F9.1°C 80% 5.8 mph SE9.3 kmh SE 8.1 mph13.0 kmh 30.00 in1015.9 mb - 0.00 in0.0 mm 0.00 in0.0 mm
08:20 AM 54.5°F12.5°C 48.1°F8.9°C 79% 4.6 mph SE7.4 kmh SE 5.8 mph9.3 kmh 30.00 in1015.9 mb - 0.00 in0.0 mm 0.00 in0.0 mm
08:30 AM 54.5°F12.5°C 47.8°F8.8°C 78% 6.9 mph SE11.1 kmh SE 9.2 mph14.8 kmh 30.00 in1015.9 mb - 0.00 in0.0 mm 0.00 in0.0 mm
08:40 AM 54.9°F12.7°C 48.1°F8.9°C 78% 5.8 mph SE9.3 kmh SE 11.5 mph18.5 kmh 30.00 in1015.9 mb - 0.00 in0.0 mm 0.00 in0.0 mm
08:50 AM 55.4°F13.0°C 48.3°F9.1°C 77% 5.8 mph ESE9.3 kmh ESE 10.4 mph16.7 kmh 30.00 in1015.9 mb - 0.00 in0.0 mm 0.00 in0.0 mm
09:00 AM 55.9°F13.3°C 48.1°F8.9°C 75% 5.8 mph ESE9.3 kmh ESE 11.5 mph18.5 kmh 30.00 in1015.9 mb - 0.00 in0.0 mm 0.00 in0.0 mm
09:10 AM 55.9°F13.3°C 47.8°F8.8°C 74% 6.9 mph SE11.1 kmh SE 10.4 mph16.7 kmh 30.00 in1015.9 mb - 0.00 in0.0 mm 0.00 in0.0 mm
09:20 AM 56.1°F13.4°C 47.9°F8.8°C 74% 8.1 mph SE13.0 kmh SE 10.4 mph16.7 kmh 30.00 in1015.9 mb - 0.00 in0.0 mm 0.00 in0.0 mm
09:30 AM 56.1°F13.4°C 47.9°F8.8°C 74% 6.9 mph SSE11.1 kmh SSE 10.4 mph16.7 kmh 30.00 in1015.9 mb - 0.00 in0.0 mm 0.00 in0.0 mm
09:40 AM 57.0°F13.9°C 48.5°F9.2°C 73% 8.1 mph SE13.0 kmh SE 8.1 mph13.0 kmh 30.00 in1015.9 mb - 0.00 in0.0 mm 0.00 in0.0 mm
09:50 AM 59.7°F15.4°C 49.5°F9.7°C 69% 6.9 mph SSE11.1 kmh SSE 8.1 mph13.0 kmh 30.00 in1015.9 mb - 0.00 in0.0 mm 0.00 in0.0 mm
10:00 AM 58.6°F14.8°C 47.7°F8.7°C 67% 8.1 mph SE13.0 kmh SE 11.5 mph18.5 kmh 30.00 in1015.9 mb - 0.00 in0.0 mm 0.00 in0.0 mm
10:10 AM 59.9°F15.5°C 48.9°F9.4°C 67% 5.8 mph SE9.3 kmh SE 12.7 mph20.4 kmh 30.00 in1015.9 mb - 0.00 in0.0 mm 0.00 in0.0 mm
10:20 AM 59.3°F15.2°C 48.3°F9.1°C 67% 6.9 mph SE11.1 kmh SE 8.1 mph13.0 kmh 30.00 in1015.9 mb - 0.00 in0.0 mm 0.00 in0.0 mm
10:30 AM 59.3°F15.2°C 47.9°F8.8°C 66% 6.9 mph SE11.1 kmh SE 12.7 mph20.4 kmh 30.00 in1015.9 mb - 0.00 in0.0 mm 0.00 in0.0 mm
10:40 AM 59.7°F15.4°C 48.3°F9.1°C 66% 6.9 mph SE11.1 kmh SE 9.2 mph14.8 kmh 30.00 in1015.9 mb - 0.00 in0.0 mm 0.00 in0.0 mm
10:50 AM 60.1°F15.6°C 48.7°F9.3°C 66% 6.9 mph SE11.1 kmh SE 11.5 mph18.5 kmh 30.00 in1015.9 mb - 0.00 in0.0 mm 0.00 in0.0 mm
11:00 AM 61.5°F16.4°C 49.6°F9.8°C 65% 6.9 mph SE11.1 kmh SE 12.7 mph20.4 kmh 30.00 in1015.9 mb - 0.00 in0.0 mm 0.00 in0.0 mm
11:10 AM 59.8°F15.4°C 48.0°F8.9°C 65% 8.1 mph SE13.0 kmh SE 12.7 mph20.4 kmh 30.00 in1015.9 mb - 0.00 in0.0 mm 0.00 in0.0 mm
11:20 AM 59.8°F15.4°C 48.0°F8.9°C 65% 8.1 mph SE13.0 kmh SE 8.1 mph13.0 kmh 30.00 in1015.9 mb - 0.00 in0.0 mm 0.00 in0.0 mm
11:30 AM 59.7°F15.4°C 47.9°F8.8°C 65% 6.9 mph SE11.1 kmh SE 9.2 mph14.8 kmh 30.00 in1015.9 mb - 0.00 in0.0 mm 0.00 in0.0 mm
11:40 AM 58.8°F14.9°C 48.3°F9.1°C 68% 8.1 mph SE13.0 kmh SE 11.5 mph18.5 kmh 30.00 in1015.9 mb - 0.00 in0.0 mm 0.00 in0.0 mm
11:50 AM 58.3°F14.6°C 47.8°F8.8°C 68% 5.8 mph SSE9.3 kmh SSE 8.1 mph13.0 kmh 30.00 in1015.9 mb - 0.00 in0.0 mm 0.00 in0.0 mm
12:00 PM 58.8°F14.9°C 48.7°F9.3°C 69% 8.1 mph SSE13.0 kmh SSE 10.4 mph16.7 kmh 30.00 in1015.9 mb - 0.00 in0.0 mm 0.00 in0.0 mm
12:10 PM 58.8°F14.9°C 48.7°F9.3°C 69% 6.9 mph S11.1 kmh S 11.5 mph18.5 kmh 30.00 in1015.9 mb - 0.00 in0.0 mm 0.00 in0.0 mm
12:20 PM 59.2°F15.1°C 48.6°F9.2°C 68% 9.2 mph SSE14.8 kmh SSE 16.1 mph25.9 kmh 30.03 in1016.9 mb - 0.00 in0.0 mm 0.00 in0.0 mm
12:30 PM 59.2°F15.1°C 48.6°F9.2°C 68% 5.8 mph SSE9.3 kmh SSE 11.5 mph18.5 kmh 30.03 in1016.9 mb - 0.00 in0.0 mm 0.00 in0.0 mm
12:40 PM 60.1°F15.6°C 49.5°F9.7°C 68% 5.8 mph SE9.3 kmh SE 10.4 mph16.7 kmh 30.03 in1016.9 mb - 0.00 in0.0 mm 0.00 in0.0 mm
12:50 PM 61.0°F16.1°C 49.5°F9.7°C 66% 4.6 mph SE7.4 kmh SE 5.8 mph9.3 kmh 30.00 in1015.9 mb - 0.00 in0.0 mm 0.00 in0.0 mm
01:00 PM 60.3°F15.7°C 49.3°F9.6°C 67% 8.1 mph SE13.0 kmh SE 10.4 mph16.7 kmh 30.00 in1015.9 mb - 0.00 in0.0 mm 0.00 in0.0 mm
01:10 PM 62.4°F16.9°C 50.9°F10.5°C 66% 6.9 mph SE11.1 kmh SE 10.4 mph16.7 kmh 30.00 in1015.9 mb - 0.00 in0.0 mm 0.00 in0.0 mm
01:20 PM 62.2°F16.8°C 50.3°F10.2°C 65% 4.6 mph SE7.4 kmh SE 8.1 mph13.0 kmh 30.03 in1016.9 mb - 0.00 in0.0 mm 0.00 in0.0 mm
01:30 PM 60.7°F15.9°C 49.3°F9.6°C 66% 8.1 mph SSE13.0 kmh SSE 12.7 mph20.4 kmh 30.00 in1015.9 mb - 0.00 in0.0 mm 0.00 in0.0 mm
01:40 PM 59.5°F15.3°C 48.6°F9.2°C 67% 11.5 mph SE18.5 kmh SE 12.7 mph20.4 kmh 30.00 in1015.9 mb - 0.00 in0.0 mm 0.00 in0.0 mm
01:50 PM 59.5°F15.3°C 49.0°F9.4°C 68% 6.9 mph SSE11.1 kmh SSE 10.4 mph16.7 kmh 30.00 in1015.9 mb - 0.00 in0.0 mm 0.00 in0.0 mm
02:00 PM 59.9°F15.5°C 49.3°F9.6°C 68% 6.9 mph S11.1 kmh S 8.1 mph13.0 kmh 30.00 in1015.9 mb - 0.00 in0.0 mm 0.00 in0.0 mm
02:10 PM 59.7°F15.4°C 49.5°F9.7°C 69% 6.9 mph SE11.1 kmh SE 9.2 mph14.8 kmh 30.00 in1015.9 mb - 0.00 in0.0 mm 0.00 in0.0 mm
02:20 PM 60.9°F16.1°C 50.7°F10.4°C 69% 6.9 mph SE11.1 kmh SE 9.2 mph14.8 kmh 30.00 in1015.9 mb - 0.00 in0.0 mm 0.00 in0.0 mm
02:30 PM 60.4°F15.8°C 49.8°F9.9°C 68% 6.9 mph SE11.1 kmh SE 9.2 mph14.8 kmh 30.00 in1015.9 mb - 0.00 in0.0 mm 0.00 in0.0 mm
02:40 PM 60.3°F15.7°C 50.0°F10.0°C 69% 6.9 mph SE11.1 kmh SE 12.7 mph20.4 kmh 30.00 in1015.9 mb - 0.00 in0.0 mm 0.00 in0.0 mm
02:50 PM 59.7°F15.4°C 49.9°F9.9°C 70% 5.8 mph SE9.3 kmh SE 9.2 mph14.8 kmh 30.00 in1015.9 mb - 0.00 in0.0 mm 0.00 in0.0 mm
03:00 PM 59.5°F15.3°C 50.1°F10.1°C 71% 4.6 mph SE7.4 kmh SE 5.8 mph9.3 kmh 30.00 in1015.9 mb - 0.00 in0.0 mm 0.00 in0.0 mm
03:10 PM 60.0°F15.6°C 50.9°F10.5°C 72% 4.6 mph S7.4 kmh S 5.8 mph9.3 kmh 30.00 in1015.9 mb - 0.00 in0.0 mm 0.00 in0.0 mm
03:20 PM 61.2°F16.2°C 51.3°F10.7°C 70% 4.6 mph E7.4 kmh E 5.8 mph9.3 kmh 30.00 in1015.9 mb - 0.00 in0.0 mm 0.00 in0.0 mm
03:30 PM 61.5°F16.4°C 51.3°F10.7°C 69% 5.8 mph SE9.3 kmh SE 9.2 mph14.8 kmh 30.00 in1015.9 mb - 0.00 in0.0 mm 0.00 in0.0 mm
03:40 PM 61.6°F16.4°C 50.9°F10.5°C 68% 6.9 mph SE11.1 kmh SE 11.5 mph18.5 kmh 30.00 in1015.9 mb - 0.00 in0.0 mm 0.00 in0.0 mm
03:50 PM 61.0°F16.1°C 50.3°F10.2°C 68% 6.9 mph SE11.1 kmh SE 9.2 mph14.8 kmh 29.97 in1014.9 mb - 0.00 in0.0 mm 0.00 in0.0 mm
04:00 PM 61.7°F16.5°C 51.0°F10.6°C 68% 6.9 mph SE11.1 kmh SE 8.1 mph13.0 kmh 29.97 in1014.9 mb - 0.00 in0.0 mm 0.00 in0.0 mm
04:10 PM 61.5°F16.4°C 50.5°F10.3°C 67% 6.9 mph SSE11.1 kmh SSE 9.2 mph14.8 kmh 29.97 in1014.9 mb - 0.00 in0.0 mm 0.00 in0.0 mm
04:20 PM 61.9°F16.6°C 50.4°F10.2°C 66% 8.1 mph SE13.0 kmh SE 12.7 mph20.4 kmh 29.97 in1014.9 mb - 0.00 in0.0 mm 0.00 in0.0 mm
04:30 PM 61.9°F16.6°C 50.4°F10.2°C 66% 6.9 mph SE11.1 kmh SE 10.4 mph16.7 kmh 29.97 in1014.9 mb - 0.00 in0.0 mm 0.00 in0.0 mm
04:40 PM 61.2°F16.2°C 49.7°F9.8°C 66% 8.1 mph S13.0 kmh S 11.5 mph18.5 kmh 29.97 in1014.9 mb - 0.00 in0.0 mm 0.00 in0.0 mm
04:50 PM 61.5°F16.4°C 50.5°F10.3°C 67% 5.8 mph SE9.3 kmh SE 9.2 mph14.8 kmh 29.97 in1014.9 mb - 0.00 in0.0 mm 0.00 in0.0 mm
05:00 PM 61.5°F16.4°C 50.5°F10.3°C 67% 5.8 mph SE9.3 kmh SE 9.2 mph14.8 kmh 29.97 in1014.9 mb - 0.00 in0.0 mm 0.00 in0.0 mm
05:10 PM 61.5°F16.4°C 50.5°F10.3°C 67% 6.9 mph SE11.1 kmh SE 8.1 mph13.0 kmh 29.97 in1014.9 mb - 0.00 in0.0 mm 0.00 in0.0 mm
05:20 PM 61.5°F16.4°C 50.5°F10.3°C 67% 5.8 mph SSE9.3 kmh SSE 5.8 mph9.3 kmh 29.97 in1014.9 mb - 0.00 in0.0 mm 0.00 in0.0 mm
05:30 PM 61.5°F16.4°C 50.5°F10.3°C 67% 8.1 mph SE13.0 kmh SE 12.7 mph20.4 kmh 29.97 in1014.9 mb - 0.00 in0.0 mm 0.00 in0.0 mm
05:40 PM 60.1°F15.6°C 49.5°F9.7°C 68% 4.6 mph SE7.4 kmh SE 8.1 mph13.0 kmh 29.97 in1014.9 mb - 0.00 in0.0 mm 0.00 in0.0 mm
05:50 PM 60.1°F15.6°C 49.9°F9.9°C 69% 4.6 mph SSE7.4 kmh SSE 5.8 mph9.3 kmh 29.97 in1014.9 mb - 0.00 in0.0 mm 0.00 in0.0 mm
06:00 PM 59.7°F15.4°C 49.9°F9.9°C 70% 3.5 mph SSE5.6 kmh SSE 8.1 mph13.0 kmh 29.97 in1014.9 mb - 0.00 in0.0 mm 0.00 in0.0 mm
06:10 PM 59.5°F15.3°C 50.1°F10.1°C 71% 4.6 mph SE7.4 kmh SE 8.1 mph13.0 kmh 29.97 in1014.9 mb - 0.00 in0.0 mm 0.00 in0.0 mm
06:20 PM 59.7°F15.4°C 50.3°F10.2°C 71% 5.8 mph SSE9.3 kmh SSE 5.8 mph9.3 kmh 29.97 in1014.9 mb - 0.00 in0.0 mm 0.00 in0.0 mm
06:30 PM 59.5°F15.3°C 50.1°F10.1°C 71% 4.6 mph SE7.4 kmh SE 5.8 mph9.3 kmh 29.97 in1014.9 mb - 0.00 in0.0 mm 0.00 in0.0 mm
06:40 PM 58.8°F14.9°C 50.2°F10.1°C 73% 5.8 mph SE9.3 kmh SE 8.1 mph13.0 kmh 29.97 in1014.9 mb - 0.00 in0.0 mm 0.00 in0.0 mm
06:50 PM 58.8°F14.9°C 50.2°F10.1°C 73% 3.5 mph SE5.6 kmh SE 5.8 mph9.3 kmh 29.97 in1014.9 mb - 0.00 in0.0 mm 0.00 in0.0 mm
07:00 PM 58.8°F14.9°C 50.2°F10.1°C 73% 6.9 mph ESE11.1 kmh ESE 11.5 mph18.5 kmh 29.97 in1014.9 mb - 0.00 in0.0 mm 0.00 in0.0 mm
07:10 PM 58.8°F14.9°C 50.2°F10.1°C 73% 4.6 mph SE7.4 kmh SE 5.8 mph9.3 kmh 29.97 in1014.9 mb - 0.00 in0.0 mm 0.00 in0.0 mm
07:20 PM 58.5°F14.7°C 50.2°F10.1°C 74% 5.8 mph SE9.3 kmh SE 9.2 mph14.8 kmh 29.97 in1014.9 mb - 0.00 in0.0 mm 0.00 in0.0 mm
07:30 PM 58.2°F14.6°C 50.7°F10.4°C 76% 5.8 mph ESE9.3 kmh ESE 5.8 mph9.3 kmh 29.97 in1014.9 mb - 0.00 in0.0 mm 0.00 in0.0 mm
07:40 PM 58.3°F14.6°C 50.7°F10.4°C 76% 5.8 mph SE9.3 kmh SE 10.4 mph16.7 kmh 29.97 in1014.9 mb - 0.00 in0.0 mm 0.00 in0.0 mm
07:50 PM 58.3°F14.6°C 50.7°F10.4°C 76% 6.9 mph SE11.1 kmh SE 9.2 mph14.8 kmh 29.97 in1014.9 mb - 0.00 in0.0 mm 0.00 in0.0 mm
08:00 PM 58.3°F14.6°C 50.7°F10.4°C 76% 6.9 mph SE11.1 kmh SE 10.4 mph16.7 kmh 29.97 in1014.9 mb - 0.00 in0.0 mm 0.00 in0.0 mm
08:10 PM 58.1°F14.5°C 50.6°F10.3°C 76% 6.9 mph SE11.1 kmh SE 9.2 mph14.8 kmh 29.97 in1014.9 mb - 0.00 in0.0 mm 0.00 in0.0 mm
08:20 PM 57.9°F14.4°C 50.0°F10.0°C 75% 9.2 mph SE14.8 kmh SE 9.2 mph14.8 kmh 29.97 in1014.9 mb - 0.00 in0.0 mm 0.00 in0.0 mm
08:30 PM 57.7°F14.3°C 49.9°F9.9°C 75% 6.9 mph SE11.1 kmh SE 15.0 mph24.1 kmh 29.97 in1014.9 mb - 0.00 in0.0 mm 0.00 in0.0 mm
08:40 PM 57.6°F14.2°C 49.8°F9.9°C 75% 8.1 mph SE13.0 kmh SE 10.4 mph16.7 kmh 29.97 in1014.9 mb - 0.00 in0.0 mm 0.00 in0.0 mm
08:50 PM 57.4°F14.1°C 49.6°F9.8°C 75% 9.2 mph SE14.8 kmh SE 12.7 mph20.4 kmh 29.97 in1014.9 mb - 0.00 in0.0 mm 0.00 in0.0 mm
09:00 PM 57.2°F14.0°C 49.0°F9.4°C 74% 8.1 mph ESE13.0 kmh ESE 12.7 mph20.4 kmh 29.97 in1014.9 mb - 0.00 in0.0 mm 0.00 in0.0 mm
09:10 PM 56.9°F13.8°C 48.7°F9.3°C 74% 9.2 mph SE14.8 kmh SE 15.0 mph24.1 kmh 29.97 in1014.9 mb - 0.00 in0.0 mm 0.00 in0.0 mm
09:20 PM 56.7°F13.7°C 47.4°F8.6°C 71% 9.2 mph SE14.8 kmh SE 12.7 mph20.4 kmh 30.00 in1015.9 mb - 0.00 in0.0 mm 0.00 in0.0 mm
09:30 PM 56.6°F13.7°C 46.9°F8.3°C 70% 9.2 mph SE14.8 kmh SE 17.3 mph27.8 kmh 29.97 in1014.9 mb - 0.00 in0.0 mm 0.00 in0.0 mm
09:40 PM 56.3°F13.5°C 46.6°F8.1°C 70% 6.9 mph SE11.1 kmh SE 10.4 mph16.7 kmh 29.97 in1014.9 mb - 0.00 in0.0 mm 0.00 in0.0 mm
09:50 PM 55.9°F13.3°C 46.3°F7.9°C 70% 9.2 mph SSE14.8 kmh SSE 13.8 mph22.2 kmh 29.97 in1014.9 mb - 0.00 in0.0 mm 0.00 in0.0 mm
10:00 PM 55.8°F13.2°C 46.6°F8.1°C 71% 6.9 mph SE11.1 kmh SE 12.7 mph20.4 kmh 29.97 in1014.9 mb - 0.00 in0.0 mm 0.00 in0.0 mm
10:10 PM 55.2°F12.9°C 46.3°F7.9°C 72% 11.5 mph SE18.5 kmh SE 12.7 mph20.4 kmh 29.97 in1014.9 mb - 0.00 in0.0 mm 0.00 in0.0 mm
10:20 PM 54.5°F12.5°C 46.4°F8.0°C 74% 12.7 mph SE20.4 kmh SE 19.6 mph31.5 kmh 29.97 in1014.9 mb - 0.00 in0.0 mm 0.00 in0.0 mm
10:30 PM 53.8°F12.1°C 46.0°F7.8°C 75% 11.5 mph ESE18.5 kmh ESE 17.3 mph27.8 kmh 29.97 in1014.9 mb - 0.00 in0.0 mm 0.00 in0.0 mm
10:40 PM 53.6°F12.0°C 46.2°F7.9°C 76% 9.2 mph SSE14.8 kmh SSE 11.5 mph18.5 kmh 29.97 in1014.9 mb - 0.00 in0.0 mm 0.00 in0.0 mm
10:50 PM 53.1°F11.7°C 46.7°F8.2°C 79% 6.9 mph SE11.1 kmh SE 13.8 mph22.2 kmh 29.97 in1014.9 mb - 0.00 in0.0 mm 0.00 in0.0 mm
11:00 PM 52.9°F11.6°C 47.2°F8.4°C 81% 9.2 mph S14.8 kmh S 12.7 mph20.4 kmh 29.97 in1014.9 mb - 0.00 in0.0 mm 0.00 in0.0 mm
11:10 PM 52.7°F11.5°C 47.7°F8.7°C 83% 10.4 mph SSE16.7 kmh SSE 17.3 mph27.8 kmh 29.97 in1014.9 mb - 0.00 in0.0 mm 0.00 in0.0 mm
11:20 PM 52.7°F11.5°C 48.3°F9.1°C 85% 10.4 mph SSE16.7 kmh SSE 12.7 mph20.4 kmh 29.97 in1014.9 mb - 0.00 in0.0 mm 0.00 in0.0 mm
11:30 PM 52.3°F11.3°C 48.3°F9.1°C 86% 10.4 mph SE16.7 kmh SE 15.0 mph24.1 kmh 29.94 in1013.9 mb - 0.00 in0.0 mm 0.00 in0.0 mm
11:40 PM 52.3°F11.3°C 48.6°F9.2°C 87% 8.1 mph SE13.0 kmh SE 9.2 mph14.8 kmh 29.94 in1013.9 mb - 0.00 in0.0 mm 0.00 in0.0 mm
11:50 PM 52.3°F11.3°C 48.6°F9.2°C 87% 6.9 mph SE11.1 kmh SE 11.5 mph18.5 kmh 29.94 in1013.9 mb - 0.00 in0.0 mm 0.00 in0.0 mm